The latest weather and runway conditions for major airports within the Toronto FIR.

CYYZ - Toronto-Lester B. Pearson International
CYYZ 192100Z 14006KT 1/2SM R24L/3500FT/D R24R/3000FT/N R23/2600FT/N -DZ FG VV002 04/02 A3001 RMK FG8 SLP172
Suggested Runways: Departures: 06L, Arrivals: 05
CYOW - Ottawa Macdonald-Cartier International
CYOW 192100Z 14005KT 6SM -RA BR OVC024 03/00 A3009 RMK SC8 SLP198
Suggested Runway: 14
CYTZ - Billy Bishop Toronto City
CYTZ 192100Z AUTO 07008KT 1SM R08/5000FT/N BR OVC003 02/02 A3003 RMK SLP175
Suggested Runway: 08
CYXU - London International
CYXU 192100Z 12005KT 110V170 1 1/2SM R15/2400FT/N -RA BR BCFG OVC002 04/04 A2997 RMK FG2SF6 VIS NW 3/4 E-SE 1 SLP160
Suggested Runway: 15
CYHM - John C. Munro Hamilton International
CYHM 192100Z 20005KT 3/8SM R12/2400FT/N -RA FG OVC002 06/06 A3000 RMK FG5ST3 SLP171
Suggested Runway: 12
CYKF - Region of Waterloo International
CYKF 192107Z AUTO 19006KT 1/8SM FG VV003 04/04 A2998 RMK SLP166
Suggested Runway: 26
CYAM - Sault Ste. Marie
CYAM 192100Z 30005KT 5SM -SN OVC026 01/M01 A2998 RMK SC8 SLP162
Suggested Runway: 30
CYTR - Canadian Forces Base Trenton
CYTR 192100Z 15006KT 1 3/4SM -DZ BR BKN007 OVC035 04/03 A3006 RMK SF6SC2 SLP182
Suggested Runway: 06